createdAt,value
2019-03-12T00:02:16.236Z,15.70
2019-03-12T00:05:19.823Z,14.03
2019-03-12T00:08:23.398Z,14.53
2019-03-12T00:11:27.319Z,14.87
2019-03-12T00:14:31.153Z,14.53
2019-03-12T00:17:34.730Z,13.37
2019-03-12T00:20:38.389Z,13.03
2019-03-12T00:23:42.253Z,12.30
2019-03-12T00:26:46.150Z,13.00
2019-03-12T00:29:50.077Z,12.60
2019-03-12T00:32:55.796Z,12.80
2019-03-12T00:35:59.326Z,12.10
2019-03-12T00:39:02.960Z,12.20
2019-03-12T00:42:06.849Z,11.23
2019-03-12T00:45:10.529Z,11.60
2019-03-12T00:48:14.137Z,10.67
2019-03-12T00:51:18.013Z,11.07
2019-03-12T00:54:21.867Z,10.70
2019-03-12T00:57:25.800Z,10.23
2019-03-12T01:00:29.684Z,9.73
2019-03-12T01:03:33.271Z,9.73
2019-03-12T01:06:37.220Z,9.57
2019-03-12T01:09:40.788Z,9.47
2019-03-12T01:12:44.721Z,9.13
2019-03-12T01:15:48.620Z,8.73
2019-03-12T01:18:52.261Z,8.83
2019-03-12T01:21:55.844Z,8.80
2019-03-12T01:24:59.696Z,8.27
2019-03-12T01:28:03.271Z,7.90
2019-03-12T01:31:07.179Z,7.40
2019-03-12T01:34:11.100Z,7.30
2019-03-12T01:37:15.014Z,7.67
2019-03-12T01:40:19.000Z,6.83
2019-03-12T01:43:22.927Z,7.20
2019-03-12T01:46:26.505Z,7.00
2019-03-12T01:49:30.345Z,6.60
2019-03-12T01:52:34.242Z,6.60
2019-03-12T01:55:38.277Z,6.93
2019-03-12T01:58:41.853Z,6.50
2019-03-12T02:01:45.424Z,6.80
2019-03-12T02:04:49.008Z,6.00
2019-03-12T02:07:52.597Z,5.93
2019-03-12T02:10:56.168Z,6.47
2019-03-12T02:14:00.035Z,5.43
2019-03-12T02:17:04.525Z,5.80
2019-03-12T02:20:10.689Z,5.17
2019-03-12T02:23:14.276Z,5.20
2019-03-12T02:26:18.133Z,5.37
2019-03-12T02:29:21.710Z,5.23
2019-03-12T02:32:25.411Z,5.10
2019-03-12T02:35:29.006Z,4.90
2019-03-12T02:38:32.553Z,4.97
2019-03-12T02:41:36.349Z,4.90
2019-03-12T02:44:40.151Z,4.80
2019-03-12T02:47:44.283Z,4.60
2019-03-12T02:50:47.953Z,4.33
2019-03-12T02:53:51.863Z,4.60
2019-03-12T02:56:55.501Z,4.50
2019-03-12T02:59:59.054Z,3.97
2019-03-12T03:03:02.601Z,4.50
2019-03-12T03:06:25.200Z,4.33
2019-03-12T03:09:29.139Z,4.20
2019-03-12T03:12:32.685Z,3.67
2019-03-12T03:15:44.217Z,4.30
2019-03-12T03:18:47.736Z,3.73
2019-03-12T03:21:51.641Z,3.83
2019-03-12T03:24:55.287Z,3.73
2019-03-12T03:27:58.918Z,3.57
2019-03-12T03:31:02.495Z,3.27
2019-03-12T03:34:06.307Z,3.30
2019-03-12T03:37:09.877Z,3.30
2019-03-12T03:40:16.119Z,3.40
2019-03-12T03:43:19.663Z,3.63
2019-03-12T03:46:23.555Z,3.17
2019-03-12T03:49:27.110Z,3.17
2019-03-12T03:52:30.934Z,3.10
2019-03-12T03:55:34.817Z,3.20
2019-03-12T03:58:38.316Z,3.07
2019-03-12T04:01:41.863Z,3.03
2019-03-12T04:04:45.701Z,3.17
2019-03-12T04:07:49.269Z,2.73
2019-03-12T04:10:52.852Z,2.87
2019-03-12T04:13:56.375Z,2.57
2019-03-12T04:17:00.497Z,2.47
2019-03-12T04:20:05.209Z,2.80
2019-03-12T04:23:08.755Z,2.93
2019-03-12T04:26:12.642Z,2.77
2019-03-12T04:29:16.194Z,2.93
2019-03-12T04:32:20.185Z,2.40
2019-03-12T04:35:24.290Z,2.70
2019-03-12T04:38:27.842Z,2.30
2019-03-12T04:41:31.426Z,2.70
2019-03-12T04:44:34.987Z,2.60
2019-03-12T04:47:39.533Z,2.30
2019-03-12T04:50:43.077Z,2.47
2019-03-12T04:53:46.960Z,2.60
2019-03-12T04:56:50.851Z,2.50
2019-03-12T04:59:54.412Z,2.10
2019-03-12T05:02:57.965Z,2.40
2019-03-12T05:06:01.837Z,2.40
2019-03-12T05:09:08.375Z,2.43
2019-03-12T05:12:11.986Z,2.30
2019-03-12T05:15:15.644Z,2.27
2019-03-12T05:18:19.220Z,2.13
2019-03-12T05:21:23.052Z,2.40
2019-03-12T05:24:26.977Z,6.00
2019-03-12T05:27:31.123Z,18.07
2019-03-12T05:30:34.687Z,14.70
2019-03-12T05:33:38.608Z,13.50
2019-03-12T05:36:42.493Z,66.53
2019-03-12T05:39:46.081Z,68.20
2019-03-12T05:42:49.668Z,64.77
2019-03-12T05:45:53.538Z,143.47
2019-03-12T05:48:57.185Z,126.83
2019-03-12T05:52:01.045Z,119.17
2019-03-12T05:55:05.111Z,119.47
2019-03-12T05:58:08.981Z,114.00
2019-03-12T06:01:12.869Z,94.83
2019-03-12T06:04:16.678Z,74.63
2019-03-12T06:07:20.548Z,62.43
2019-03-12T06:10:24.119Z,53.63
2019-03-12T06:13:28.212Z,47.73
2019-03-12T06:16:31.782Z,47.23
2019-03-12T06:19:35.624Z,48.30
2019-03-12T06:22:39.178Z,45.10
2019-03-12T06:25:42.851Z,45.87
2019-03-12T06:28:46.779Z,43.27
2019-03-12T06:32:14.326Z,42.47
2019-03-12T06:35:24.021Z,38.17
2019-03-12T06:38:42.099Z,39.40
2019-03-12T06:41:55.797Z,37.23
2019-03-12T06:45:14.271Z,36.33
2019-03-12T06:48:35.671Z,32.97
2019-03-12T06:51:57.360Z,33.40
2019-03-12T06:55:22.787Z,33.47
2019-03-12T06:58:35.530Z,32.70
2019-03-12T07:01:55.115Z,29.80
2019-03-12T07:05:21.366Z,30.10
2019-03-12T07:08:32.937Z,29.83
2019-03-12T07:11:52.830Z,29.53
2019-03-12T07:15:18.432Z,28.83
2019-03-12T07:18:31.571Z,27.30
2019-03-12T07:21:52.042Z,26.27
2019-03-12T07:25:03.777Z,26.27
2019-03-12T07:28:32.644Z,25.27
2019-03-12T07:31:54.048Z,25.40
2019-03-12T07:35:15.853Z,24.60
2019-03-12T07:38:31.090Z,22.87
2019-03-12T07:41:56.714Z,23.23
2019-03-12T07:45:22.808Z,21.57
2019-03-12T07:48:51.592Z,21.73
2019-03-12T07:52:02.829Z,21.17
2019-03-12T07:55:24.517Z,21.13
2019-03-12T07:58:46.218Z,20.17
2019-03-12T08:02:09.144Z,19.90
2019-03-12T08:05:23.284Z,19.00
2019-03-12T08:08:45.247Z,19.13
2019-03-12T08:11:53.540Z,17.70
2019-03-12T08:15:22.949Z,17.73
2019-03-12T08:18:38.661Z,17.63
2019-03-12T08:22:10.460Z,16.40
2019-03-12T08:25:20.759Z,16.60
2019-03-12T08:28:55.444Z,16.50
2019-03-12T08:32:14.065Z,16.03
2019-03-12T08:35:35.369Z,15.20
2019-03-12T08:38:46.329Z,15.77
2019-03-12T08:42:09.205Z,15.23
2019-03-12T08:45:30.613Z,14.90
2019-03-12T08:48:52.226Z,14.53
2019-03-12T08:52:05.694Z,12.47
2019-03-12T08:55:27.452Z,12.83
2019-03-12T08:58:53.479Z,12.23
2019-03-12T09:02:04.387Z,12.33
2019-03-12T09:05:18.983Z,12.27
2019-03-12T09:08:29.658Z,12.13
2019-03-12T09:11:52.257Z,12.00
2019-03-12T09:15:05.228Z,11.60
2019-03-12T09:18:22.557Z,10.67
2019-03-12T09:21:32.908Z,10.50
2019-03-12T09:24:58.538Z,10.60
2019-03-12T09:28:13.476Z,9.80
2019-03-12T09:31:27.056Z,10.23
2019-03-12T09:34:49.661Z,10.17
2019-03-12T09:38:27.691Z,10.03
2019-03-12T09:41:43.873Z,9.03
2019-03-12T09:44:53.959Z,8.90
2019-03-12T09:48:11.248Z,8.13
2019-03-12T09:51:25.045Z,8.57
2019-03-12T09:54:46.776Z,8.23
2019-03-12T09:57:58.515Z,8.87
2019-03-12T10:01:24.438Z,8.07
2019-03-12T10:04:38.079Z,8.00
2019-03-12T10:08:00.679Z,7.90
2019-03-12T10:11:15.023Z,7.30
2019-03-12T10:14:30.912Z,7.60
2019-03-12T10:17:44.882Z,6.93
2019-03-12T10:20:56.551Z,6.67
2019-03-12T10:24:15.946Z,7.67
2019-03-12T10:27:45.136Z,6.90
2019-03-12T10:31:02.764Z,6.70
2019-03-12T10:34:31.483Z,6.67
2019-03-12T10:37:53.432Z,6.97
2019-03-12T10:41:15.086Z,5.80
2019-03-12T10:44:26.739Z,5.87
2019-03-12T10:47:31.057Z,5.73
2019-03-12T10:50:35.012Z,5.53
2019-03-12T10:53:38.571Z,5.67
2019-03-12T10:56:42.119Z,5.63
2019-03-12T10:59:46.003Z,5.63
2019-03-12T11:02:49.631Z,5.23
2019-03-12T11:05:53.253Z,5.50
2019-03-12T11:08:57.162Z,5.17
2019-03-12T11:12:01.075Z,4.93
2019-03-12T11:15:05.213Z,4.97
2019-03-12T11:18:08.764Z,5.10
2019-03-12T11:21:12.591Z,4.87
2019-03-12T11:24:16.156Z,4.67
2019-03-12T11:27:19.698Z,4.70
2019-03-12T11:30:23.428Z,5.20
2019-03-12T11:33:26.986Z,4.43
2019-03-12T11:36:30.555Z,4.47
2019-03-12T11:39:34.111Z,4.40
2019-03-12T11:42:37.940Z,4.30
2019-03-12T11:45:41.611Z,4.10
2019-03-12T11:48:45.397Z,4.77
2019-03-12T11:51:48.948Z,3.60
2019-03-12T11:54:52.582Z,3.80
2019-03-12T11:57:56.196Z,4.00
2019-03-12T12:01:02.408Z,4.00
2019-03-12T12:04:06.078Z,3.60
2019-03-12T12:07:09.649Z,3.63
2019-03-12T12:10:13.542Z,3.37
2019-03-12T12:13:17.170Z,3.63
2019-03-12T12:16:20.733Z,3.50
2019-03-12T12:19:24.567Z,3.47
2019-03-12T12:22:28.382Z,3.70
2019-03-12T12:25:31.934Z,3.33
2019-03-12T12:28:35.774Z,2.90
2019-03-12T12:31:39.944Z,3.53
2019-03-12T12:34:43.782Z,2.90
2019-03-12T12:37:47.587Z,3.10
2019-03-12T12:40:51.139Z,3.03
2019-03-12T12:43:54.737Z,3.20
2019-03-12T12:46:58.305Z,3.13
2019-03-12T12:50:01.959Z,2.93
2019-03-12T12:53:05.938Z,2.70
2019-03-12T12:56:09.731Z,3.00
2019-03-12T12:59:13.564Z,2.87
2019-03-12T13:02:17.113Z,3.20
2019-03-12T13:05:21.127Z,3.27
2019-03-12T13:08:24.984Z,3.10
2019-03-12T13:11:29.081Z,2.90
2019-03-12T13:14:41.469Z,2.73
2019-03-12T13:17:38.272Z,2.50
2019-03-12T13:20:41.834Z,2.40
2019-03-12T13:23:45.671Z,2.93
2019-03-12T13:26:49.577Z,2.40
2019-03-12T13:29:53.659Z,2.67
2019-03-12T13:32:57.236Z,2.67
2019-03-12T13:36:00.853Z,2.60
2019-03-12T13:39:05.493Z,2.30
2019-03-12T13:42:09.319Z,2.33
2019-03-12T13:45:14.729Z,2.43
2019-03-12T13:48:18.906Z,2.20
2019-03-12T13:51:22.683Z,2.30
2019-03-12T13:54:26.245Z,2.30
2019-03-12T13:57:30.105Z,2.30
2019-03-12T14:00:33.859Z,2.20
2019-03-12T14:03:37.385Z,2.50
2019-03-12T14:06:41.566Z,2.47
2019-03-12T14:09:45.122Z,2.20
2019-03-12T14:12:49.006Z,2.13
2019-03-12T14:15:52.631Z,2.30
2019-03-12T14:18:56.202Z,2.10
2019-03-12T14:22:01.646Z,2.20
2019-03-12T14:25:07.013Z,2.30
2019-03-12T14:28:10.658Z,2.50
2019-03-12T14:31:14.204Z,2.10
2019-03-12T14:34:18.070Z,2.27
2019-03-12T14:37:21.917Z,2.17
2019-03-12T14:40:25.481Z,2.00
2019-03-12T14:43:29.026Z,2.20
2019-03-12T14:46:33.118Z,2.20
2019-03-12T14:49:36.668Z,2.00
2019-03-12T14:52:44.815Z,1.80
2019-03-12T14:55:48.385Z,2.03
2019-03-12T14:58:51.944Z,1.90
2019-03-12T15:01:55.499Z,1.97
2019-03-12T15:04:59.071Z,2.13
2019-03-12T15:08:02.687Z,2.00
2019-03-12T15:11:06.572Z,1.70
2019-03-12T15:14:10.294Z,1.80
2019-03-12T15:17:13.863Z,1.90
2019-03-12T15:20:17.432Z,2.13
2019-03-12T15:23:21.301Z,1.70
2019-03-12T15:26:24.859Z,1.80
2019-03-12T15:29:28.418Z,2.00
2019-03-12T15:32:31.972Z,1.80
2019-03-12T15:35:35.530Z,1.70
2019-03-12T15:38:39.409Z,1.97
2019-03-12T15:41:43.056Z,1.77
2019-03-12T15:44:46.927Z,1.80
2019-03-12T15:47:50.509Z,1.60
2019-03-12T15:50:54.649Z,1.57
2019-03-12T15:53:58.256Z,1.80
2019-03-12T15:57:01.831Z,1.87
2019-03-12T16:00:05.879Z,1.70
2019-03-12T16:03:09.447Z,1.90
2019-03-12T16:06:13.015Z,1.50
2019-03-12T16:09:16.644Z,70.83
2019-03-12T16:12:20.211Z,28.93
2019-03-12T16:15:23.828Z,26.40
2019-03-12T16:18:27.407Z,61.97
2019-03-12T16:21:31.050Z,65.60
2019-03-12T16:24:34.885Z,60.67
2019-03-12T16:27:38.472Z,52.10
2019-03-12T16:30:42.344Z,45.47
2019-03-12T16:33:45.977Z,39.90
2019-03-12T16:36:49.559Z,36.13
2019-03-12T16:39:53.282Z,34.63
2019-03-12T16:42:56.860Z,34.43
2019-03-12T16:46:00.690Z,31.30
2019-03-12T16:49:04.668Z,30.73
2019-03-12T16:52:08.495Z,28.57
2019-03-12T16:55:12.152Z,27.30
2019-03-12T16:58:16.022Z,29.13
2019-03-12T17:01:19.587Z,27.10
2019-03-12T17:04:23.157Z,27.50
2019-03-12T17:07:26.993Z,26.63
2019-03-12T17:10:30.789Z,24.07
2019-03-12T17:13:34.353Z,24.10
2019-03-12T17:16:38.536Z,24.20
2019-03-12T17:19:42.100Z,23.63
2019-03-12T17:22:45.665Z,23.00
2019-03-12T17:25:49.220Z,22.00
2019-03-12T17:28:53.035Z,22.20
2019-03-12T17:31:56.664Z,19.83
2019-03-12T17:35:01.491Z,20.03
2019-03-12T17:38:05.398Z,21.00
2019-03-12T17:41:09.283Z,19.53
2019-03-12T17:44:12.859Z,19.00
2019-03-12T17:47:16.415Z,18.30
2019-03-12T17:50:20.341Z,17.27
2019-03-12T17:53:24.223Z,18.10
2019-03-12T17:56:27.784Z,16.67
2019-03-12T17:59:31.353Z,18.57
2019-03-12T18:02:42.492Z,17.70
2019-03-12T18:05:40.216Z,16.30
2019-03-12T18:08:44.415Z,15.43
2019-03-12T18:11:47.985Z,15.93
2019-03-12T18:14:51.873Z,14.93
2019-03-12T18:17:55.540Z,14.67
2019-03-12T18:20:59.161Z,14.77
2019-03-12T18:24:03.091Z,13.83
2019-03-12T18:27:06.930Z,14.40
2019-03-12T18:30:13.139Z,14.33
2019-03-12T18:33:17.022Z,14.50
2019-03-12T18:36:20.570Z,13.40
2019-03-12T18:39:24.144Z,13.03
2019-03-12T18:42:28.269Z,12.03
2019-03-12T18:45:32.079Z,12.40
2019-03-12T18:48:35.639Z,12.03
2019-03-12T18:51:39.221Z,11.73
2019-03-12T18:54:43.098Z,11.37
2019-03-12T18:57:46.652Z,11.27
2019-03-12T19:00:50.295Z,11.47
2019-03-12T19:03:54.206Z,11.50
2019-03-12T19:06:57.786Z,10.93
2019-03-12T19:10:01.366Z,10.93
2019-03-12T19:13:05.130Z,10.13
2019-03-12T19:16:08.759Z,10.40
2019-03-12T19:19:12.332Z,9.70
2019-03-12T19:22:15.882Z,9.80
2019-03-12T19:25:19.454Z,9.30
2019-03-12T19:28:22.998Z,8.93
2019-03-12T19:31:47.331Z,9.13
2019-03-12T19:34:50.886Z,8.97
2019-03-12T19:37:54.653Z,8.03
2019-03-12T19:40:58.321Z,8.70
2019-03-12T19:44:01.870Z,8.10
2019-03-12T19:47:05.505Z,8.43
2019-03-12T19:50:11.654Z,7.97
2019-03-12T19:53:16.159Z,8.00
2019-03-12T19:56:19.790Z,7.87
2019-03-12T19:59:23.433Z,6.77
2019-03-12T20:02:26.982Z,7.53
2019-03-12T20:05:30.637Z,7.40
2019-03-12T20:08:34.491Z,6.53
2019-03-12T20:12:11.087Z,6.60
2019-03-12T20:15:57.663Z,6.23
2019-03-12T20:19:53.996Z,6.77
2019-03-12T20:23:33.958Z,6.20
2019-03-12T20:27:14.088Z,19.20
2019-03-12T20:31:08.177Z,20.70
2019-03-12T20:34:41.454Z,43.07
2019-03-12T20:38:39.385Z,61.07
2019-03-12T20:42:19.273Z,49.73
2019-03-12T20:46:01.486Z,42.87
2019-03-12T20:49:41.942Z,35.83
2019-03-12T20:53:22.780Z,32.07
2019-03-12T20:57:06.577Z,29.53
2019-03-12T21:00:52.669Z,28.23
2019-03-12T21:04:27.310Z,54.37
2019-03-12T21:08:14.721Z,35.03
2019-03-12T21:12:00.890Z,41.87
2019-03-12T21:15:43.008Z,35.40
2019-03-12T21:19:38.341Z,31.67
2019-03-12T21:23:22.122Z,26.43
2019-03-12T21:27:03.179Z,27.20
2019-03-12T21:30:11.745Z,25.73
2019-03-12T21:33:16.673Z,25.10
2019-03-12T21:36:31.245Z,24.07
2019-03-12T21:39:35.625Z,23.13
2019-03-12T21:42:53.583Z,17.13
2019-03-12T21:45:59.451Z,9.90
2019-03-12T21:49:03.027Z,15.23
2019-03-12T21:52:12.370Z,6.77
2019-03-12T21:55:16.561Z,50.27
2019-03-12T21:58:23.863Z,48.03
2019-03-12T22:01:35.442Z,40.47
2019-03-12T22:04:42.793Z,34.47
2019-03-12T22:07:48.132Z,31.37
2019-03-12T22:10:51.679Z,28.60
2019-03-12T22:14:01.258Z,27.30
2019-03-12T22:17:08.721Z,25.87
2019-03-12T22:20:14.844Z,25.03
2019-03-12T22:23:24.032Z,23.47
2019-03-12T22:26:36.463Z,21.77
2019-03-12T22:29:40.060Z,22.27
2019-03-12T22:32:43.927Z,22.23
2019-03-12T22:35:47.743Z,21.73
2019-03-12T22:38:51.324Z,73.77
2019-03-12T22:41:55.151Z,42.97
2019-03-12T22:44:58.960Z,110.10
2019-03-12T22:48:02.590Z,151.73
2019-03-12T22:51:06.167Z,135.67
2019-03-12T22:54:09.732Z,114.13
2019-03-12T22:57:13.570Z,111.47
2019-03-12T23:00:17.525Z,96.97
2019-03-12T23:03:21.342Z,87.33
2019-03-12T23:06:28.381Z,81.93
2019-03-12T23:09:30.508Z,72.13
2019-03-12T23:12:34.475Z,72.03
2019-03-12T23:15:38.338Z,70.70
2019-03-12T23:18:42.334Z,69.23
2019-03-12T23:21:45.886Z,60.97
2019-03-12T23:24:49.442Z,56.13
2019-03-12T23:27:52.996Z,59.83
2019-03-12T23:30:56.891Z,56.97
2019-03-12T23:34:00.749Z,54.07
2019-03-12T23:37:04.374Z,54.10
2019-03-12T23:40:08.305Z,51.97
2019-03-12T23:43:11.877Z,51.33
2019-03-12T23:46:15.807Z,48.00
2019-03-12T23:49:19.648Z,50.77
2019-03-12T23:52:23.515Z,44.43
2019-03-12T23:55:27.254Z,46.47
2019-03-12T23:58:31.550Z,44.43
